createdAt,value
2018-10-12T00:00:04.300Z,21.90
2018-10-12T00:02:32.699Z,21.57
2018-10-12T00:05:01.030Z,22.23
2018-10-12T00:07:29.351Z,21.43
2018-10-12T00:09:58.810Z,20.57
2018-10-12T00:12:27.091Z,20.93
2018-10-12T00:14:55.400Z,21.53
2018-10-12T00:17:23.742Z,20.67
2018-10-12T00:19:52.078Z,21.37
2018-10-12T00:22:20.448Z,21.13
2018-10-12T00:24:48.747Z,22.03
2018-10-12T00:27:17.056Z,22.17
2018-10-12T00:29:45.368Z,21.57
2018-10-12T00:32:13.684Z,22.00
2018-10-12T00:34:42.036Z,21.13
2018-10-12T00:37:10.386Z,21.23
2018-10-12T00:39:38.711Z,22.20
2018-10-12T00:42:07.063Z,22.33
2018-10-12T00:44:35.356Z,21.73
2018-10-12T00:47:03.692Z,21.57
2018-10-12T00:49:32.013Z,21.83
2018-10-12T00:52:00.350Z,22.63
2018-10-12T00:54:28.811Z,20.80
2018-10-12T00:56:57.253Z,22.20
2018-10-12T00:59:25.605Z,23.40
2018-10-12T01:01:54.039Z,21.07
2018-10-12T01:04:22.350Z,21.93
2018-10-12T01:06:50.690Z,21.40
2018-10-12T01:09:18.967Z,21.60
2018-10-12T01:11:47.370Z,21.90
2018-10-12T01:15:19.022Z,21.63
2018-10-12T01:17:47.311Z,20.53
2018-10-12T01:20:15.631Z,20.53
2018-10-12T01:22:43.949Z,20.63
2018-10-12T01:25:12.903Z,21.33
2018-10-12T01:27:41.200Z,20.97
2018-10-12T01:30:09.496Z,21.67
2018-10-12T01:32:43.129Z,21.33
2018-10-12T01:35:11.517Z,22.00
2018-10-12T01:37:39.875Z,21.33
2018-10-12T01:40:08.203Z,21.27
2018-10-12T01:42:36.651Z,21.03
2018-10-12T01:45:04.921Z,21.53
2018-10-12T01:47:33.243Z,21.53
2018-10-12T01:50:01.590Z,21.80
2018-10-12T01:52:29.881Z,22.13
2018-10-12T01:54:58.195Z,21.63
2018-10-12T01:57:26.491Z,22.37
2018-10-12T01:59:54.816Z,23.43
2018-10-12T02:02:23.091Z,22.60
2018-10-12T02:04:51.440Z,22.00
2018-10-12T02:07:19.735Z,22.50
2018-10-12T02:09:48.055Z,22.37
2018-10-12T02:12:16.373Z,23.60
2018-10-12T02:14:44.736Z,23.53
2018-10-12T02:17:13.007Z,23.13
2018-10-12T02:19:41.304Z,22.30
2018-10-12T02:22:09.619Z,23.33
2018-10-12T02:24:37.950Z,23.07
2018-10-12T02:27:06.281Z,22.47
2018-10-12T02:29:34.585Z,23.33
2018-10-12T02:32:02.891Z,22.67
2018-10-12T02:34:31.211Z,22.10
2018-10-12T02:36:59.856Z,22.83
2018-10-12T02:39:28.151Z,23.90
2018-10-12T02:41:56.495Z,23.03
2018-10-12T02:44:24.803Z,22.03
2018-10-12T02:46:53.094Z,22.23
2018-10-12T02:49:28.089Z,22.03
2018-10-12T02:51:56.392Z,21.83
2018-10-12T02:54:24.699Z,22.47
2018-10-12T02:56:52.996Z,22.93
2018-10-12T02:59:21.287Z,22.83
2018-10-12T03:01:49.588Z,22.17
2018-10-12T03:04:17.878Z,22.80
2018-10-12T03:06:46.184Z,22.50
2018-10-12T03:09:14.468Z,21.73
2018-10-12T03:11:42.814Z,22.87
2018-10-12T03:14:11.106Z,21.43
2018-10-12T03:16:39.415Z,22.57
2018-10-12T03:19:07.761Z,22.47
2018-10-12T03:21:36.097Z,20.97
2018-10-12T03:24:04.398Z,21.77
2018-10-12T03:26:32.735Z,22.23
2018-10-12T03:29:01.027Z,21.87
2018-10-12T03:31:29.353Z,22.53
2018-10-12T03:33:57.663Z,21.83
2018-10-12T03:36:26.471Z,22.30
2018-10-12T03:38:54.763Z,21.63
2018-10-12T03:41:23.100Z,22.43
2018-10-12T03:43:51.388Z,22.33
2018-10-12T03:46:19.719Z,23.17
2018-10-12T03:48:48.013Z,22.27
2018-10-12T03:51:16.355Z,22.40
2018-10-12T03:53:44.664Z,23.03
2018-10-12T03:56:12.984Z,22.57
2018-10-12T03:58:41.333Z,22.97
2018-10-12T04:01:09.839Z,22.33
2018-10-12T04:03:38.219Z,22.90
2018-10-12T04:06:06.551Z,21.80
2018-10-12T04:08:35.514Z,22.33
2018-10-12T04:11:03.832Z,21.87
2018-10-12T04:13:32.157Z,21.00
2018-10-12T04:16:00.464Z,22.43
2018-10-12T04:18:28.787Z,22.27
2018-10-12T04:20:57.252Z,22.23
2018-10-12T04:23:25.563Z,21.97
2018-10-12T04:25:53.855Z,23.50
2018-10-12T04:28:22.209Z,22.17
2018-10-12T04:30:50.498Z,22.70
2018-10-12T04:33:18.819Z,20.60
2018-10-12T04:35:47.124Z,23.10
2018-10-12T04:38:15.460Z,21.13
2018-10-12T04:41:04.046Z,22.03
2018-10-12T04:43:32.865Z,20.33
2018-10-12T04:46:02.660Z,22.30
2018-10-12T04:48:31.172Z,21.00
2018-10-12T04:51:00.148Z,22.67
2018-10-12T04:53:28.453Z,21.73
2018-10-12T04:55:56.726Z,21.97
2018-10-12T04:58:25.275Z,20.20
2018-10-12T05:00:53.601Z,22.43
2018-10-12T05:03:22.209Z,22.63
2018-10-12T05:05:50.535Z,22.23
2018-10-12T05:08:18.909Z,22.17
2018-10-12T05:10:47.220Z,22.70
2018-10-12T05:13:15.568Z,22.17
2018-10-12T05:15:43.912Z,22.17
2018-10-12T05:18:12.232Z,21.60
2018-10-12T05:20:40.513Z,21.73
2018-10-12T05:23:08.835Z,21.47
2018-10-12T05:25:37.154Z,22.30
2018-10-12T05:28:05.568Z,24.53
2018-10-12T05:30:33.867Z,24.20
2018-10-12T05:33:02.241Z,24.43
2018-10-12T05:35:30.549Z,24.23
2018-10-12T05:37:59.581Z,24.37
2018-10-12T05:40:29.540Z,24.97
2018-10-12T05:42:58.006Z,23.90
2018-10-12T05:45:26.243Z,22.90
2018-10-12T05:47:59.035Z,23.90
2018-10-12T05:50:27.351Z,23.97
2018-10-12T05:52:55.677Z,23.87
2018-10-12T05:55:23.979Z,23.93
2018-10-12T05:57:52.288Z,24.23
2018-10-12T06:00:20.677Z,23.27
2018-10-12T06:02:49.047Z,23.90
2018-10-12T06:05:17.487Z,26.10
2018-10-12T06:07:45.844Z,25.03
2018-10-12T06:10:14.145Z,23.67
2018-10-12T06:12:42.548Z,24.03
2018-10-12T06:15:11.121Z,24.47
2018-10-12T06:17:39.467Z,23.83
2018-10-12T06:20:08.741Z,25.27
2018-10-12T06:22:37.334Z,25.80
2018-10-12T06:25:06.534Z,24.37
2018-10-12T06:27:35.135Z,23.90
2018-10-12T06:30:04.734Z,24.30
2018-10-12T06:32:33.095Z,25.27
2018-10-12T06:35:01.553Z,24.60
2018-10-12T06:37:29.876Z,24.30
2018-10-12T06:39:58.211Z,23.43
2018-10-12T06:42:26.710Z,25.40
2018-10-12T06:44:55.324Z,23.30
2018-10-12T06:47:24.256Z,25.80
2018-10-12T06:49:52.612Z,25.40
2018-10-12T06:52:20.964Z,24.50
2018-10-12T06:54:49.307Z,24.60
2018-10-12T06:57:17.647Z,24.50
2018-10-12T06:59:46.068Z,24.10
2018-10-12T07:02:15.274Z,25.70
2018-10-12T07:04:45.627Z,25.77
2018-10-12T07:07:14.138Z,25.40
2018-10-12T07:09:42.546Z,24.37
2018-10-12T07:12:11.393Z,25.30
2018-10-12T07:14:39.859Z,25.13
2018-10-12T07:17:08.540Z,22.70
2018-10-12T07:19:37.107Z,25.17
2018-10-12T07:22:05.418Z,26.10
2018-10-12T07:24:33.831Z,25.00
2018-10-12T07:27:02.353Z,24.90
2018-10-12T07:29:30.672Z,26.00
2018-10-12T07:31:59.027Z,25.13
2018-10-12T07:34:27.329Z,28.70
2018-10-12T07:36:56.473Z,24.67
2018-10-12T07:39:24.934Z,25.73
2018-10-12T07:41:53.332Z,24.67
2018-10-12T07:44:22.912Z,25.33
2018-10-12T07:46:51.268Z,26.50
2018-10-12T07:49:19.658Z,26.67
2018-10-12T07:51:48.163Z,27.23
2018-10-12T07:54:16.462Z,28.50
2018-10-12T07:56:44.962Z,30.30
2018-10-12T07:59:13.269Z,28.87
2018-10-12T08:01:41.578Z,29.40
2018-10-12T08:04:09.912Z,28.47
2018-10-12T08:06:38.351Z,30.57
2018-10-12T08:09:07.633Z,29.30
2018-10-12T08:11:36.454Z,29.17
2018-10-12T08:14:04.860Z,27.37
2018-10-12T08:16:33.330Z,28.00
2018-10-12T08:19:01.729Z,27.23
2018-10-12T08:21:31.154Z,27.63
2018-10-12T08:23:59.533Z,28.20
2018-10-12T08:26:27.983Z,29.23
2018-10-12T08:28:56.288Z,28.43
2018-10-12T08:31:24.620Z,28.40
2018-10-12T08:33:52.954Z,30.00
2018-10-12T08:36:21.334Z,29.70
2018-10-12T08:38:49.701Z,27.67
2018-10-12T08:41:18.048Z,28.17
2018-10-12T08:43:46.364Z,26.60
2018-10-12T08:46:14.659Z,26.77
2018-10-12T08:48:43.000Z,28.30
2018-10-12T08:51:11.292Z,28.33
2018-10-12T08:53:39.634Z,24.80
2018-10-12T08:56:07.991Z,26.50
2018-10-12T08:58:36.344Z,25.23
2018-10-12T09:01:04.651Z,26.73
2018-10-12T09:03:32.964Z,26.20
2018-10-12T09:06:01.244Z,27.10
2018-10-12T09:08:29.668Z,26.37
2018-10-12T09:10:57.987Z,26.17
2018-10-12T09:13:26.341Z,24.80
2018-10-12T09:15:54.665Z,25.57
2018-10-12T09:18:23.057Z,26.77
2018-10-12T09:20:51.451Z,25.50
2018-10-12T09:23:19.807Z,26.73
2018-10-12T09:25:48.113Z,27.20
2018-10-12T09:28:16.809Z,24.27
2018-10-12T09:30:45.145Z,35.20
2018-10-12T09:33:13.460Z,25.17
2018-10-12T09:35:41.815Z,26.47
2018-10-12T09:38:10.159Z,25.33
2018-10-12T09:40:38.549Z,23.37
2018-10-12T09:43:06.897Z,23.90
2018-10-12T09:45:35.215Z,22.93
2018-10-12T09:48:03.562Z,21.93
2018-10-12T09:50:31.993Z,21.47
2018-10-12T09:53:00.218Z,20.00
2018-10-12T09:55:28.583Z,19.40
2018-10-12T09:57:56.899Z,19.13
2018-10-12T10:00:30.610Z,18.77
2018-10-12T10:03:03.176Z,18.77
2018-10-12T10:05:32.397Z,18.73
2018-10-12T10:08:00.818Z,17.17
2018-10-12T10:10:29.159Z,17.13
2018-10-12T10:12:57.448Z,16.77
2018-10-12T10:15:25.867Z,17.60
2018-10-12T10:17:54.114Z,17.10
2018-10-12T10:20:22.481Z,17.17
2018-10-12T10:22:50.783Z,17.47
2018-10-12T10:25:19.160Z,16.23
2018-10-12T10:27:47.463Z,19.63
2018-10-12T10:30:15.859Z,14.77
2018-10-12T10:32:44.207Z,13.40
2018-10-12T10:35:12.698Z,15.70
2018-10-12T10:37:41.019Z,13.97
2018-10-12T10:40:09.376Z,13.63
2018-10-12T10:42:37.735Z,13.10
2018-10-12T10:45:06.335Z,13.20
2018-10-12T10:47:34.664Z,13.37
2018-10-12T10:50:03.000Z,15.10
2018-10-12T10:52:31.324Z,12.70
2018-10-12T10:54:59.912Z,12.23
2018-10-12T10:57:28.244Z,11.87
2018-10-12T10:59:56.550Z,11.63
2018-10-12T11:02:24.974Z,10.43
2018-10-12T11:04:53.292Z,11.10
2018-10-12T11:07:21.615Z,10.47
2018-10-12T11:09:49.892Z,9.43
2018-10-12T11:12:18.238Z,9.10
2018-10-12T11:14:46.567Z,9.63
2018-10-12T11:17:14.915Z,9.37
2018-10-12T11:19:43.270Z,9.73
2018-10-12T11:22:11.531Z,9.50
2018-10-12T11:24:39.847Z,7.97
2018-10-12T11:27:08.356Z,9.20
2018-10-12T11:29:36.659Z,9.77
2018-10-12T11:32:04.980Z,9.43
2018-10-12T11:34:33.309Z,9.53
2018-10-12T11:37:01.623Z,9.37
2018-10-12T11:39:29.926Z,9.43
2018-10-12T11:41:58.251Z,9.60
2018-10-12T11:44:26.562Z,10.10
2018-10-12T11:46:55.045Z,11.30
2018-10-12T11:49:23.417Z,10.40
2018-10-12T11:51:51.770Z,9.67
2018-10-12T11:54:20.110Z,8.30
2018-10-12T11:56:48.536Z,15.07
2018-10-12T11:59:16.843Z,10.80
2018-10-12T12:01:45.180Z,14.83
2018-10-12T12:04:13.532Z,9.97
2018-10-12T12:06:41.831Z,9.00
2018-10-12T12:09:10.147Z,8.30
2018-10-12T12:11:38.452Z,7.93
2018-10-12T12:14:06.800Z,8.10
2018-10-12T12:16:35.088Z,7.07
2018-10-12T12:19:03.459Z,7.83
2018-10-12T12:21:31.809Z,15.57
2018-10-12T12:24:00.232Z,50.10
2018-10-12T12:26:28.563Z,8.77
2018-10-12T12:28:56.873Z,7.70
2018-10-12T12:31:25.193Z,7.47
2018-10-12T12:33:53.492Z,6.97
2018-10-12T12:36:21.795Z,6.43
2018-10-12T12:38:50.091Z,6.40
2018-10-12T12:41:18.400Z,6.47
2018-10-12T12:43:46.730Z,6.07
2018-10-12T12:46:15.602Z,5.87
2018-10-12T12:48:44.302Z,5.87
2018-10-12T12:51:12.899Z,5.43
2018-10-12T12:53:41.401Z,5.33
2018-10-12T12:56:10.164Z,5.10
2018-10-12T12:58:38.500Z,4.47
2018-10-12T13:01:06.789Z,4.20
2018-10-12T13:03:35.087Z,4.33
2018-10-12T13:06:03.430Z,4.50
2018-10-12T13:08:31.834Z,4.17
2018-10-12T13:11:00.151Z,4.67
2018-10-12T13:13:28.465Z,3.80
2018-10-12T13:15:56.761Z,3.60
2018-10-12T13:18:25.086Z,3.77
2018-10-12T13:20:53.399Z,3.30
2018-10-12T13:23:21.691Z,3.60
2018-10-12T13:25:50.015Z,3.57
2018-10-12T13:28:18.284Z,3.60
2018-10-12T13:30:46.620Z,3.90
2018-10-12T13:33:14.923Z,3.77
2018-10-12T13:35:43.353Z,3.80
2018-10-12T13:38:11.670Z,4.30
2018-10-12T13:40:39.972Z,3.40
2018-10-12T13:43:08.316Z,3.60
2018-10-12T13:45:36.616Z,2.90
2018-10-12T13:48:04.904Z,2.77
2018-10-12T13:50:33.226Z,3.30
2018-10-12T13:53:01.535Z,2.80
2018-10-12T13:55:29.907Z,3.00
2018-10-12T13:57:58.220Z,3.30
2018-10-12T14:00:26.717Z,3.23
2018-10-12T14:02:55.012Z,3.20
2018-10-12T14:05:23.337Z,2.90
2018-10-12T14:07:51.735Z,3.40
2018-10-12T14:10:20.071Z,3.60
2018-10-12T14:12:48.551Z,2.97
2018-10-12T14:15:17.175Z,3.00
2018-10-12T14:17:45.472Z,3.23
2018-10-12T14:20:13.779Z,3.13
2018-10-12T14:22:42.074Z,2.80
2018-10-12T14:25:10.406Z,3.07
2018-10-12T14:27:38.938Z,2.90
2018-10-12T14:30:07.272Z,2.90
2018-10-12T14:32:35.539Z,3.27
2018-10-12T14:35:04.414Z,3.97
2018-10-12T14:37:32.718Z,3.00
2018-10-12T14:40:01.004Z,3.22
2018-10-12T14:42:29.315Z,3.20
2018-10-12T14:44:57.690Z,2.75
2018-10-12T14:47:26.053Z,2.90
2018-10-12T14:49:54.384Z,2.93
2018-10-12T14:52:22.686Z,3.00
2018-10-12T14:54:50.974Z,3.50
2018-10-12T14:57:20.096Z,3.40
2018-10-12T14:59:50.230Z,3.63
2018-10-12T15:02:19.516Z,2.90
2018-10-12T15:04:47.835Z,3.30
2018-10-12T15:07:16.166Z,3.20
2018-10-12T15:09:44.532Z,3.10
2018-10-12T15:12:12.844Z,3.33
2018-10-12T15:14:52.618Z,2.93
2018-10-12T15:17:21.047Z,3.20
2018-10-12T15:19:49.519Z,3.00
2018-10-12T15:22:17.829Z,3.17
2018-10-12T15:24:46.138Z,2.90
2018-10-12T15:27:14.448Z,3.07
2018-10-12T15:29:42.747Z,3.20
2018-10-12T15:32:11.153Z,3.20
2018-10-12T15:34:39.400Z,3.50
2018-10-12T15:37:07.750Z,3.73
2018-10-12T15:39:36.166Z,3.23
2018-10-12T15:42:04.517Z,4.40
2018-10-12T15:44:32.824Z,3.80
2018-10-12T15:47:01.180Z,3.40
2018-10-12T15:49:29.866Z,4.20
2018-10-12T15:51:58.776Z,5.07
2018-10-12T15:54:27.052Z,6.50
2018-10-12T15:56:55.411Z,7.67
2018-10-12T15:59:23.779Z,6.70
2018-10-12T16:01:52.102Z,5.30
2018-10-12T16:04:20.399Z,5.60
2018-10-12T16:06:48.687Z,5.83
2018-10-12T16:09:16.979Z,5.50
2018-10-12T16:11:45.284Z,6.33
2018-10-12T16:14:13.629Z,5.30
2018-10-12T16:16:41.961Z,6.80
2018-10-12T16:19:10.286Z,5.40
2018-10-12T16:21:38.651Z,5.70
2018-10-12T16:24:11.352Z,5.47
2018-10-12T16:26:39.677Z,5.17
2018-10-12T16:29:08.026Z,5.30
2018-10-12T16:31:36.341Z,6.30
2018-10-12T16:34:04.644Z,5.60
2018-10-12T16:36:33.015Z,5.37
2018-10-12T16:39:01.269Z,6.13
2018-10-12T16:41:29.784Z,6.77
2018-10-12T16:43:58.107Z,5.83
2018-10-12T16:46:26.446Z,6.77
2018-10-12T16:48:54.797Z,6.33
2018-10-12T16:51:23.132Z,6.43
2018-10-12T16:53:51.453Z,6.40
2018-10-12T16:56:19.788Z,6.57
2018-10-12T16:58:48.139Z,6.67
2018-10-12T17:01:16.424Z,7.43
2018-10-12T17:03:44.716Z,6.63
2018-10-12T17:06:13.045Z,7.80
2018-10-12T17:08:41.439Z,7.93
2018-10-12T17:11:09.711Z,7.70
2018-10-12T17:13:38.075Z,8.50
2018-10-12T17:16:06.632Z,8.60
2018-10-12T17:18:34.956Z,8.60
2018-10-12T17:21:03.341Z,8.80
2018-10-12T17:23:31.729Z,8.93
2018-10-12T17:26:00.335Z,8.60
2018-10-12T17:28:28.753Z,8.43
2018-10-12T17:30:57.355Z,8.00
2018-10-12T17:33:25.767Z,8.63
2018-10-12T17:35:54.108Z,8.47
2018-10-12T17:38:22.435Z,9.10
2018-10-12T17:40:50.735Z,8.30
2018-10-12T17:43:19.176Z,8.63
2018-10-12T17:45:47.476Z,8.43
2018-10-12T17:48:15.800Z,8.63
2018-10-12T17:50:44.195Z,6.77
2018-10-12T17:53:12.537Z,6.43
2018-10-12T17:55:40.856Z,7.00
2018-10-12T17:58:09.519Z,7.17
2018-10-12T18:00:37.836Z,6.83
2018-10-12T18:03:06.156Z,6.20
2018-10-12T18:05:34.551Z,7.10
2018-10-12T18:08:02.871Z,6.20
2018-10-12T18:10:31.181Z,6.23
2018-10-12T18:12:59.585Z,6.53
2018-10-12T18:15:27.897Z,7.77
2018-10-12T18:17:56.259Z,8.23
2018-10-12T18:20:24.557Z,7.33
2018-10-12T18:22:52.912Z,8.40
2018-10-12T18:25:21.232Z,8.77
2018-10-12T18:27:49.651Z,8.63
2018-10-12T18:30:17.964Z,9.10
2018-10-12T18:32:46.374Z,8.47
2018-10-12T18:35:14.681Z,9.43
2018-10-12T18:37:43.000Z,12.83
2018-10-12T18:40:11.279Z,10.30
2018-10-12T18:42:39.619Z,9.40
2018-10-12T18:45:07.985Z,9.03
2018-10-12T18:47:36.357Z,9.60
2018-10-12T18:50:04.960Z,10.37
2018-10-12T18:52:33.280Z,9.83
2018-10-12T18:55:01.695Z,10.13
2018-10-12T18:57:33.399Z,10.20
2018-10-12T19:00:02.808Z,11.43
2018-10-12T19:02:31.288Z,10.83
2018-10-12T19:04:59.714Z,10.73
2018-10-12T19:07:27.977Z,11.47
2018-10-12T19:09:56.296Z,12.27
2018-10-12T19:12:24.767Z,12.77
2018-10-12T19:14:53.114Z,11.53
2018-10-12T19:17:21.437Z,11.20
2018-10-12T19:19:49.800Z,10.57
2018-10-12T19:22:18.125Z,11.27
2018-10-12T19:24:46.553Z,10.73
2018-10-12T19:27:14.876Z,11.00
2018-10-12T19:29:43.271Z,11.17
2018-10-12T19:32:11.550Z,10.70
2018-10-12T19:34:39.922Z,11.00
2018-10-12T19:37:08.259Z,10.80
2018-10-12T19:39:36.556Z,9.80
2018-10-12T19:42:04.855Z,10.33
2018-10-12T19:44:33.216Z,10.37
2018-10-12T19:47:01.580Z,10.40
2018-10-12T19:49:29.940Z,10.87
2018-10-12T19:51:58.273Z,10.37
2018-10-12T19:54:26.619Z,10.10
2018-10-12T19:56:55.110Z,10.40
2018-10-12T19:59:23.476Z,11.07
2018-10-12T20:01:51.908Z,10.77
2018-10-12T20:04:20.191Z,11.57
2018-10-12T20:06:48.523Z,11.47
2018-10-12T20:09:16.920Z,14.57
2018-10-12T20:11:45.255Z,11.60
2018-10-12T20:14:13.600Z,11.27
2018-10-12T20:16:41.940Z,9.63
2018-10-12T20:19:10.518Z,10.13
2018-10-12T20:21:39.185Z,10.27
2018-10-12T20:24:07.808Z,9.50
2018-10-12T20:26:36.090Z,10.30
2018-10-12T20:29:04.472Z,9.77
2018-10-12T20:31:32.801Z,9.53
2018-10-12T20:34:01.219Z,9.63
2018-10-12T20:36:29.568Z,9.23
2018-10-12T20:38:57.868Z,8.50
2018-10-12T20:41:26.215Z,9.33
2018-10-12T20:43:54.625Z,8.73
2018-10-12T20:46:23.560Z,8.47
2018-10-12T20:48:52.113Z,8.53
2018-10-12T20:51:20.547Z,8.67
2018-10-12T20:53:48.855Z,8.63
2018-10-12T20:56:17.199Z,8.67
2018-10-12T20:58:45.583Z,8.83
2018-10-12T21:01:13.888Z,8.17
2018-10-12T21:03:42.241Z,8.63
2018-10-12T21:06:10.956Z,8.20
2018-10-12T21:08:39.243Z,9.07
2018-10-12T21:11:07.538Z,8.80
2018-10-12T21:13:35.846Z,8.93
2018-10-12T21:16:04.139Z,9.63
2018-10-12T21:18:32.441Z,8.93
2018-10-12T21:21:00.759Z,9.17
2018-10-12T21:23:29.589Z,8.93
2018-10-12T21:25:57.914Z,9.03
2018-10-12T21:28:26.486Z,9.30
2018-10-12T21:30:54.739Z,9.27
2018-10-12T21:33:23.153Z,8.70
2018-10-12T21:35:51.558Z,8.30
2018-10-12T21:38:19.828Z,9.03
2018-10-12T21:40:48.201Z,8.00
2018-10-12T21:43:16.496Z,9.40
2018-10-12T21:45:44.804Z,8.57
2018-10-12T21:48:13.115Z,8.07
2018-10-12T21:50:41.530Z,7.90
2018-10-12T21:53:09.828Z,8.53
2018-10-12T21:55:38.140Z,7.80
2018-10-12T21:58:06.858Z,7.60
2018-10-12T22:00:35.267Z,8.00
2018-10-12T22:03:03.601Z,8.00
2018-10-12T22:05:32.093Z,8.47
2018-10-12T22:08:00.507Z,8.63
2018-10-12T22:10:28.855Z,8.33
2018-10-12T22:12:58.079Z,7.97
2018-10-12T22:15:26.425Z,7.80
2018-10-12T22:17:54.735Z,8.33
2018-10-12T22:20:23.057Z,8.07
2018-10-12T22:22:51.385Z,7.30
2018-10-12T22:25:19.830Z,8.00
2018-10-12T22:27:48.211Z,8.00
2018-10-12T22:30:16.548Z,7.53
2018-10-12T22:32:44.949Z,7.67
2018-10-12T22:35:13.541Z,8.00
2018-10-12T22:37:45.368Z,7.20
2018-10-12T22:40:13.678Z,7.80
2018-10-12T22:42:42.032Z,8.27
2018-10-12T22:45:10.433Z,8.33
2018-10-12T22:47:38.802Z,7.70
2018-10-12T22:50:07.120Z,7.20
2018-10-12T22:52:35.429Z,7.37
2018-10-12T22:55:03.723Z,7.33
2018-10-12T22:57:32.035Z,7.20
2018-10-12T23:00:00.315Z,7.67
2018-10-12T23:02:28.615Z,7.37
2018-10-12T23:04:56.905Z,7.60
2018-10-12T23:07:25.258Z,7.50
2018-10-12T23:09:53.556Z,7.50
2018-10-12T23:12:21.880Z,6.23
2018-10-12T23:14:50.181Z,7.27
2018-10-12T23:17:18.491Z,7.10
2018-10-12T23:19:46.777Z,6.93
2018-10-12T23:22:15.088Z,6.77
2018-10-12T23:24:43.396Z,7.57
2018-10-12T23:27:11.745Z,6.80
2018-10-12T23:29:40.067Z,7.10
2018-10-12T23:32:08.445Z,7.60
2018-10-12T23:34:36.759Z,7.00
2018-10-12T23:37:05.064Z,7.13
2018-10-12T23:39:33.359Z,7.40
2018-10-12T23:42:01.677Z,7.73
2018-10-12T23:44:30.012Z,6.83
2018-10-12T23:46:58.320Z,7.33
2018-10-12T23:49:26.662Z,7.17
2018-10-12T23:51:54.951Z,6.90
2018-10-12T23:54:23.241Z,7.60
2018-10-12T23:56:51.547Z,6.63
2018-10-12T23:59:19.841Z,7.00
